Time;durP1;ratioP1;P1;durP2;ratioP2;P2;SDS_P1;SDS_P2;PMS_P1;PMS_P2;Temp;Humidity;BMP_temperature;BMP_pressure;BME280_temperature;BME280_humidity;BME280_pressure;Samples;Min_cycle;Max_cycle;Signal;HPM_P1;HPM_P2
2021/11/24 00:00:46;;;;;;;13.37;9.27;;;5.50;67.50;;;;;;5060502;28;20028;-82
2021/11/24 00:03:12;;;;;;;12.50;9.53;;;5.50;67.70;;;;;;5045888;28;20028;-82
2021/11/24 00:05:37;;;;;;;13.70;9.57;;;5.40;67.70;;;;;;5066995;28;20064;-82
2021/11/24 00:08:04;;;;;;;14.97;9.53;;;5.40;67.70;;;;;;5047894;28;20388;-82
2021/11/24 00:10:33;;;;;;;14.27;9.13;;;5.40;67.50;;;;;;5047164;28;20146;-82
2021/11/24 00:12:58;;;;;;;11.97;8.47;;;5.40;67.70;;;;;;5055295;28;20027;-82
2021/11/24 00:15:25;;;;;;;13.60;8.47;;;5.40;67.60;;;;;;5071453;28;20016;-82
2021/11/24 00:17:50;;;;;;;10.63;8.23;;;5.40;67.60;;;;;;5053817;28;20029;-82
2021/11/24 00:20:16;;;;;;;12.43;9.13;;;5.40;67.60;;;;;;5072398;28;20040;-82
2021/11/24 00:22:43;;;;;;;12.80;9.10;;;5.40;67.50;;;;;;5063535;28;20111;-81
2021/11/24 00:25:09;;;;;;;16.23;11.40;;;5.40;67.50;;;;;;5053601;28;20028;-82
2021/11/24 00:27:35;;;;;;;16.23;11.00;;;5.30;67.40;;;;;;5065820;28;20027;-82
2021/11/24 00:30:01;;;;;;;17.83;11.40;;;5.30;67.70;;;;;;5061288;28;20020;-82
2021/11/24 00:32:27;;;;;;;18.73;12.13;;;5.20;67.80;;;;;;5070737;28;20091;-82
2021/11/24 00:34:53;;;;;;;18.17;11.87;;;5.20;67.90;;;;;;5064652;28;20036;-82
2021/11/24 00:37:18;;;;;;;18.57;12.73;;;5.20;68.00;;;;;;5076673;28;20028;-82
2021/11/24 00:39:44;;;;;;;15.27;10.43;;;5.10;68.20;;;;;;5082430;28;20035;-82
2021/11/24 00:42:10;;;;;;;14.53;8.83;;;5.20;68.20;;;;;;5079658;28;20027;-82
2021/11/24 00:44:37;;;;;;;13.67;9.47;;;5.10;68.30;;;;;;5052784;28;20450;-82
2021/11/24 00:47:03;;;;;;;11.33;8.23;;;5.10;68.40;;;;;;5074124;28;20029;-82
2021/11/24 00:49:29;;;;;;;10.37;6.73;;;5.10;68.10;;;;;;5055482;28;20021;-81
2021/11/24 00:51:54;;;;;;;13.30;7.60;;;5.00;68.00;;;;;;5076654;28;20036;-81
2021/11/24 00:54:20;;;;;;;11.80;6.83;;;5.00;67.90;;;;;;5084260;28;20066;-81
2021/11/24 00:56:46;;;;;;;11.37;8.23;;;4.90;67.90;;;;;;5072035;28;20154;-81
2021/11/24 00:59:11;;;;;;;21.67;8.77;;;4.90;68.10;;;;;;5057878;28;20032;-81
2021/11/24 01:01:37;;;;;;;10.50;7.40;;;4.90;68.10;;;;;;5059487;28;20047;-82
2021/11/24 01:04:03;;;;;;;11.43;8.27;;;4.90;68.00;;;;;;5083187;28;20025;-81
2021/11/24 01:06:28;;;;;;;14.50;9.27;;;4.90;67.90;;;;;;5087253;28;20514;-81
2021/11/24 01:08:54;;;;;;;15.90;10.77;;;4.90;67.90;;;;;;5087653;28;20021;-81
2021/11/24 01:11:20;;;;;;;10.60;7.57;;;4.90;68.00;;;;;;5070089;28;20123;-81
2021/11/24 01:13:47;;;;;;;14.80;8.90;;;4.90;67.90;;;;;;5079758;28;20497;-81
2021/11/24 01:16:13;;;;;;;11.50;7.70;;;4.80;67.80;;;;;;5065415;28;20499;-81
2021/11/24 01:18:39;;;;;;;9.87;7.07;;;4.80;68.10;;;;;;5073361;28;20063;-81
2021/11/24 01:21:05;;;;;;;12.20;7.50;;;4.80;68.20;;;;;;5081145;28;20103;-80
2021/11/24 01:23:33;;;;;;;9.37;7.13;;;4.70;68.20;;;;;;5051488;28;20393;-82
2021/11/24 01:25:59;;;;;;;16.87;7.73;;;4.70;68.20;;;;;;5058894;28;20036;-81
2021/11/24 01:28:25;;;;;;;9.97;7.17;;;4.70;68.10;;;;;;5080872;28;20028;-81
2021/11/24 01:30:52;;;;;;;9.63;6.63;;;4.80;68.50;;;;;;5059184;28;20025;-81
2021/11/24 01:33:17;;;;;;;13.93;8.27;;;4.70;67.70;;;;;;5069897;28;20030;-81
2021/11/24 01:35:43;;;;;;;11.17;8.17;;;4.70;67.70;;;;;;5056852;28;20016;-81
2021/11/24 01:38:09;;;;;;;10.17;6.80;;;4.70;67.50;;;;;;5077396;28;20043;-81
2021/11/24 01:40:35;;;;;;;9.40;6.57;;;4.60;67.70;;;;;;5083092;28;20029;-80
2021/11/24 01:43:01;;;;;;;10.37;5.87;;;4.60;67.70;;;;;;5071710;28;20044;-80
2021/11/24 01:45:27;;;;;;;9.30;6.63;;;4.60;67.40;;;;;;5065327;28;20543;-80
2021/11/24 01:47:54;;;;;;;8.90;5.27;;;4.60;67.40;;;;;;5084569;28;20036;-81
2021/11/24 01:50:20;;;;;;;11.73;5.53;;;4.60;67.20;;;;;;5057652;28;20124;-81
2021/11/24 01:52:47;;;;;;;10.43;8.43;;;4.60;67.20;;;;;;5058719;28;20017;-81
2021/11/24 01:55:14;;;;;;;8.27;5.87;;;4.60;67.20;;;;;;5086469;28;20028;-81
2021/11/24 01:57:42;;;;;;;7.17;5.43;;;4.60;67.30;;;;;;5061848;28;20369;-81
2021/11/24 02:00:09;;;;;;;8.13;5.40;;;4.50;67.40;;;;;;5058215;28;20032;-81
2021/11/24 02:02:35;;;;;;;8.73;5.47;;;4.50;67.40;;;;;;5049689;28;20383;-81
2021/11/24 02:05:01;;;;;;;8.53;5.57;;;4.50;67.50;;;;;;5052863;28;20032;-81
2021/11/24 02:07:26;;;;;;;8.30;5.33;;;4.50;67.40;;;;;;5058254;28;20064;-81
2021/11/24 02:09:52;;;;;;;11.90;6.30;;;4.40;67.50;;;;;;5082118;28;20091;-81
2021/11/24 02:12:18;;;;;;;8.73;5.87;;;4.40;67.40;;;;;;5058311;28;20066;-80
2021/11/24 02:14:44;;;;;;;10.37;6.93;;;4.40;67.50;;;;;;5058761;28;20427;-80
2021/11/24 02:17:13;;;;;;;9.70;6.30;;;4.40;67.50;;;;;;5054107;28;20047;-80
2021/11/24 02:19:38;;;;;;;11.33;6.70;;;4.40;67.70;;;;;;5064700;28;20024;-81
2021/11/24 02:22:04;;;;;;;6.57;5.00;;;4.40;67.70;;;;;;5069562;28;20029;-81
2021/11/24 02:24:33;;;;;;;8.40;5.13;;;4.40;67.40;;;;;;5057984;28;20499;-81
2021/11/24 02:27:00;;;;;;;8.63;5.80;;;4.40;67.20;;;;;;5059002;28;20369;-81
2021/11/24 02:29:26;;;;;;;8.20;5.20;;;4.40;67.20;;;;;;5061088;28;20177;-82
2021/11/24 02:31:57;;;;;;;8.17;6.33;;;4.40;67.20;;;;;;5056997;28;20024;-81
2021/11/24 02:34:23;;;;;;;7.83;5.33;;;4.40;67.10;;;;;;5056041;28;20021;-81
2021/11/24 02:36:49;;;;;;;8.30;5.40;;;4.40;67.10;;;;;;5054921;28;20161;-81
2021/11/24 02:39:15;;;;;;;8.67;5.17;;;4.40;67.20;;;;;;5080496;28;20115;-81
2021/11/24 02:41:42;;;;;;;8.20;6.40;;;4.40;67.20;;;;;;5058692;28;20047;-81
2021/11/24 02:44:15;;;;;;;9.13;6.57;;;4.40;67.00;;;;;;5067745;28;20498;-81
2021/11/24 02:46:41;;;;;;;10.70;6.40;;;4.30;66.90;;;;;;5080533;28;20051;-81
2021/11/24 02:49:06;;;;;;;8.07;5.93;;;4.30;67.00;;;;;;5072189;28;20463;-81
2021/11/24 02:51:32;;;;;;;10.67;5.20;;;4.30;66.80;;;;;;5082495;28;20501;-81
2021/11/24 02:53:58;;;;;;;9.27;6.17;;;4.30;66.70;;;;;;5046209;28;20092;-81
2021/11/24 02:56:23;;;;;;;11.23;5.13;;;4.30;66.60;;;;;;5053760;28;20027;-81
2021/11/24 02:58:49;;;;;;;8.07;5.97;;;4.30;66.50;;;;;;5082605;28;20043;-81
2021/11/24 03:01:15;;;;;;;7.97;5.60;;;4.20;66.70;;;;;;5052856;28;20094;-81
2021/11/24 03:03:40;;;;;;;11.43;6.07;;;4.20;66.80;;;;;;5058540;28;20035;-81
2021/11/24 03:06:06;;;;;;;7.67;5.20;;;4.20;66.90;;;;;;5080265;28;20028;-81
2021/11/24 03:08:32;;;;;;;9.50;6.00;;;4.20;67.00;;;;;;5087754;28;20566;-80
2021/11/24 03:10:57;;;;;;;16.70;9.70;;;4.20;67.00;;;;;;5058619;28;20111;-81
2021/11/24 03:13:23;;;;;;;24.07;11.83;;;4.20;67.20;;;;;;5059060;28;20382;-82
2021/11/24 03:15:49;;;;;;;21.03;10.53;;;4.30;67.30;;;;;;5079069;28;20087;-81
2021/11/24 03:18:14;;;;;;;17.93;11.13;;;4.40;67.30;;;;;;5056823;28;20111;-81
2021/11/24 03:20:40;;;;;;;14.63;10.00;;;4.30;67.30;;;;;;5066810;28;20047;-81
2021/11/24 03:23:07;;;;;;;17.27;9.93;;;4.30;67.20;;;;;;5073296;28;20391;-80
2021/11/24 03:25:34;;;;;;;19.57;10.37;;;4.30;67.10;;;;;;5072921;28;20028;-81
2021/11/24 03:27:59;;;;;;;20.03;10.97;;;4.20;67.10;;;;;;5069866;28;20475;-81
2021/11/24 03:30:28;;;;;;;18.60;10.70;;;4.20;67.20;;;;;;5057505;28;20032;-81
2021/11/24 03:32:55;;;;;;;18.93;10.33;;;4.30;67.10;;;;;;5065722;28;20025;-81
2021/11/24 03:35:22;;;;;;;14.93;8.47;;;4.30;67.10;;;;;;5054325;28;20028;-81
2021/11/24 03:37:51;;;;;;;17.37;9.43;;;4.30;67.10;;;;;;5075518;28;20024;-81
2021/11/24 03:40:16;;;;;;;14.30;8.70;;;4.20;67.70;;;;;;5051698;28;20031;-80
2021/11/24 03:42:46;;;;;;;14.67;7.70;;;4.20;66.90;;;;;;5072268;28;20103;-81
2021/11/24 03:45:13;;;;;;;12.53;7.80;;;4.20;66.90;;;;;;5059204;28;20040;-81
2021/11/24 03:47:39;;;;;;;13.70;7.30;;;4.20;66.80;;;;;;5047654;28;20087;-81
2021/11/24 03:50:07;;;;;;;12.80;7.17;;;4.20;66.80;;;;;;5094708;28;20380;-81
2021/11/24 03:52:33;;;;;;;14.33;7.77;;;4.10;66.60;;;;;;5075203;28;20028;-81
2021/11/24 03:54:59;;;;;;;14.07;7.47;;;4.00;66.80;;;;;;5067932;28;20379;-81
2021/11/24 03:57:24;;;;;;;12.20;6.30;;;4.00;66.80;;;;;;5083068;28;20028;-81
2021/11/24 03:59:50;;;;;;;9.60;6.53;;;4.00;67.00;;;;;;5060818;28;20043;-81
2021/11/24 04:02:16;;;;;;;10.57;6.07;;;4.00;67.00;;;;;;5062716;28;20024;-80
2021/11/24 04:04:42;;;;;;;10.90;6.00;;;3.90;66.90;;;;;;5086424;28;20032;-81
2021/11/24 04:07:07;;;;;;;16.03;7.77;;;3.90;67.00;;;;;;5073910;28;20428;-81
2021/11/24 04:09:33;;;;;;;12.20;7.43;;;4.00;67.10;;;;;;5080135;28;20090;-81
2021/11/24 04:11:59;;;;;;;12.87;7.67;;;3.90;66.90;;;;;;5056441;28;20036;-81
2021/11/24 04:14:25;;;;;;;11.57;7.23;;;3.90;67.60;;;;;;5084410;28;20024;-81
2021/11/24 04:16:51;;;;;;;12.03;7.13;;;3.90;67.20;;;;;;5074861;28;20159;-81
2021/11/24 04:19:16;;;;;;;11.50;6.33;;;3.90;67.20;;;;;;5056152;28;20035;-81
2021/11/24 04:21:43;;;;;;;11.47;8.40;;;3.90;67.20;;;;;;5073314;28;20078;-81
2021/11/24 04:24:09;;;;;;;14.10;8.67;;;3.90;67.00;;;;;;5074371;28;20157;-82
2021/11/24 04:26:34;;;;;;;11.07;7.03;;;3.80;67.10;;;;;;5087824;28;20062;-82
2021/11/24 04:29:00;;;;;;;13.57;8.13;;;3.80;67.10;;;;;;5058699;28;20433;-81
2021/11/24 04:31:26;;;;;;;14.13;7.80;;;3.80;67.20;;;;;;5073361;28;20031;-82
2021/11/24 04:33:52;;;;;;;14.03;8.37;;;3.80;67.10;;;;;;5057946;28;20387;-82
2021/11/24 04:36:17;;;;;;;17.43;9.20;;;3.80;67.00;;;;;;5069996;28;20458;-82
2021/11/24 04:38:43;;;;;;;20.03;11.20;;;3.70;67.20;;;;;;5079302;28;20036;-82
2021/11/24 04:41:09;;;;;;;23.73;12.27;;;3.70;67.50;;;;;;5077106;28;20032;-82
2021/11/24 04:43:47;;;;;;;23.20;12.70;;;3.70;67.70;;;;;;5086311;28;20090;-81
2021/11/24 04:46:15;;;;;;;29.20;15.03;;;3.80;67.80;;;;;;5074247;28;20062;-80
2021/11/24 04:48:41;;;;;;;27.60;15.90;;;3.80;67.90;;;;;;5066490;28;20407;-80
2021/11/24 04:51:07;;;;;;;18.80;12.47;;;3.80;67.90;;;;;;5089737;28;20074;-79
2021/11/24 04:53:32;;;;;;;19.03;10.60;;;3.80;68.00;;;;;;5058407;28;20021;-80
2021/11/24 04:55:58;;;;;;;20.60;11.67;;;3.80;67.90;;;;;;5041465;28;20100;-80
2021/11/24 04:58:24;;;;;;;21.23;11.33;;;3.80;68.00;;;;;;5053403;28;20525;-79
2021/11/24 05:00:50;;;;;;;19.33;10.67;;;3.80;67.90;;;;;;5075547;28;20021;-80
2021/11/24 05:03:16;;;;;;;16.67;8.60;;;3.80;67.90;;;;;;5072149;28;20031;-82
2021/11/24 05:05:42;;;;;;;19.57;11.67;;;3.80;67.90;;;;;;5084005;28;20024;-82
2021/11/24 05:08:08;;;;;;;27.70;13.30;;;3.80;67.90;;;;;;5085891;28;20458;-82
2021/11/24 05:10:34;;;;;;;33.77;14.83;;;3.80;68.10;;;;;;5088724;28;20036;-82
2021/11/24 05:13:00;;;;;;;22.60;12.03;;;3.80;67.90;;;;;;5086026;28;20072;-82
2021/11/24 05:15:30;;;;;;;37.53;16.40;;;3.80;68.20;;;;;;5065796;28;20112;-82
2021/11/24 05:18:00;;;;;;;38.73;17.13;;;3.80;68.20;;;;;;5064188;28;20825;-83
2021/11/24 05:20:29;;;;;;;42.80;20.13;;;3.80;68.30;;;;;;5088349;28;20040;-82
2021/11/24 05:22:58;;;;;;;35.93;18.20;;;3.80;68.70;;;;;;5069367;28;20372;-82
2021/11/24 05:25:24;;;;;;;35.60;17.67;;;3.90;68.60;;;;;;5089786;28;20534;-82
2021/11/24 05:27:50;;;;;;;86.20;26.33;;;4.00;68.70;;;;;;5054098;28;20163;-81
2021/11/24 05:30:16;;;;;;;61.90;25.73;;;4.10;68.70;;;;;;5083391;28;20024;-82
2021/11/24 05:32:42;;;;;;;59.33;25.83;;;4.00;68.40;;;;;;5066060;28;20031;-79
2021/11/24 05:35:08;;;;;;;58.63;25.47;;;4.00;68.80;;;;;;5051929;28;20028;-79
2021/11/24 05:37:33;;;;;;;61.47;26.10;;;3.90;69.00;;;;;;5056331;28;20040;-79
2021/11/24 05:39:59;;;;;;;65.27;25.93;;;3.90;69.30;;;;;;5083085;28;20043;-79
2021/11/24 05:42:27;;;;;;;121.17;24.37;;;3.90;69.50;;;;;;5077464;28;20523;-81
2021/11/24 05:45:02;;;;;;;73.83;24.30;;;3.90;69.50;;;;;;5072101;28;20098;-81
2021/11/24 05:50:26;;;;;;;79.67;21.80;;;4.00;69.70;;;;;;5061674;28;20058;-80
2021/11/24 05:52:53;;;;;;;55.87;23.17;;;3.90;69.80;;;;;;5058553;28;20826;-81
2021/11/24 05:55:18;;;;;;;90.93;22.00;;;3.90;69.90;;;;;;5056904;28;20025;-80
2021/11/24 05:57:44;;;;;;;58.93;22.77;;;3.90;70.20;;;;;;5055087;28;20054;-80
2021/11/24 06:00:11;;;;;;;99.50;21.47;;;3.90;70.20;;;;;;5074179;28;20430;-80
2021/11/24 06:02:36;;;;;;;123.67;21.70;;;3.90;70.30;;;;;;5056875;28;20031;-80
2021/11/24 06:05:02;;;;;;;60.80;23.33;;;3.90;70.20;;;;;;5074778;28;20020;-80
2021/11/24 06:07:28;;;;;;;53.47;21.73;;;3.90;70.40;;;;;;5058192;28;20037;-80
2021/11/24 06:09:54;;;;;;;51.87;22.27;;;3.80;70.20;;;;;;5090525;28;20512;-81
2021/11/24 06:12:19;;;;;;;51.40;21.27;;;3.90;70.60;;;;;;5080066;28;20107;-81
2021/11/24 06:14:45;;;;;;;36.80;19.30;;;3.90;70.50;;;;;;5074393;28;20544;-80
2021/11/24 06:17:11;;;;;;;42.97;20.73;;;3.90;70.50;;;;;;5075562;28;20558;-81
2021/11/24 06:19:37;;;;;;;39.27;19.03;;;3.90;70.50;;;;;;5073038;28;20039;-80
2021/11/24 06:22:03;;;;;;;41.40;19.47;;;4.00;70.50;;;;;;5043101;28;20119;-81
2021/11/24 06:24:29;;;;;;;38.13;18.00;;;4.00;70.30;;;;;;5056077;28;20029;-80
2021/11/24 06:26:55;;;;;;;34.37;16.40;;;4.00;70.10;;;;;;5069822;28;20029;-81
2021/11/24 06:29:21;;;;;;;41.17;20.40;;;4.00;70.10;;;;;;5070936;28;20361;-82
2021/11/24 06:31:47;;;;;;;42.83;20.03;;;3.90;70.10;;;;;;5074390;28;20048;-82
2021/11/24 06:34:12;;;;;;;46.57;23.80;;;3.90;70.10;;;;;;5055989;28;20020;-82
2021/11/24 06:36:38;;;;;;;47.60;22.73;;;4.00;70.20;;;;;;5068960;28;20029;-82
2021/11/24 06:39:04;;;;;;;41.13;20.57;;;4.00;70.10;;;;;;5064297;28;20025;-82
2021/11/24 06:41:29;;;;;;;42.93;21.20;;;3.90;70.20;;;;;;5066187;28;20036;-81
2021/11/24 06:43:55;;;;;;;45.87;21.43;;;4.00;70.30;;;;;;5073883;28;20048;-82
2021/11/24 06:46:21;;;;;;;47.53;21.10;;;3.90;70.20;;;;;;5073435;28;20035;-81
2021/11/24 06:48:47;;;;;;;45.70;20.47;;;3.90;70.30;;;;;;5052901;28;20029;-81
2021/11/24 06:51:13;;;;;;;50.63;23.10;;;3.90;70.40;;;;;;5073331;28;20069;-82
2021/11/24 06:53:40;;;;;;;41.87;20.23;;;3.90;70.30;;;;;;5050127;28;20910;-82
2021/11/24 06:56:06;;;;;;;46.93;19.97;;;3.90;70.10;;;;;;5052539;28;20051;-82
2021/11/24 06:58:32;;;;;;;38.03;15.80;;;3.90;70.20;;;;;;5052473;28;20063;-82
2021/11/24 07:01:00;;;;;;;25.00;10.93;;;3.90;70.30;;;;;;5040628;28;20017;-79
2021/11/24 07:03:26;;;;;;;16.73;9.57;;;4.00;70.30;;;;;;5071527;28;20369;-79
2021/11/24 07:05:51;;;;;;;15.87;8.70;;;4.00;70.20;;;;;;5073707;28;20103;-79
2021/11/24 07:08:17;;;;;;;15.37;8.97;;;4.00;70.30;;;;;;5055158;28;20086;-79
2021/11/24 07:10:43;;;;;;;25.27;12.37;;;4.00;70.30;;;;;;5054796;28;20032;-79
2021/11/24 07:13:08;;;;;;;37.43;17.33;;;4.00;70.20;;;;;;5051856;28;20024;-79
2021/11/24 07:15:34;;;;;;;31.87;16.67;;;4.00;69.90;;;;;;5056242;28;20016;-79
2021/11/24 07:18:00;;;;;;;39.13;17.83;;;4.00;70.50;;;;;;5055751;28;20028;-80
2021/11/24 07:20:26;;;;;;;35.70;17.10;;;4.00;70.00;;;;;;5052088;28;20056;-78
2021/11/24 07:22:52;;;;;;;33.27;16.13;;;4.00;70.20;;;;;;5053335;28;20108;-80
2021/11/24 07:25:19;;;;;;;30.43;16.40;;;4.00;70.30;;;;;;5053562;28;20021;-79
2021/11/24 07:27:46;;;;;;;27.40;15.00;;;4.00;70.40;;;;;;5061513;28;20367;-81
2021/11/24 07:30:12;;;;;;;28.27;17.23;;;4.00;70.10;;;;;;5054329;28;20391;-80
2021/11/24 07:32:38;;;;;;;28.27;15.90;;;4.00;69.80;;;;;;5054772;28;20027;-80
2021/11/24 07:35:06;;;;;;;24.93;13.30;;;4.00;69.80;;;;;;5068220;28;20029;-80
2021/11/24 07:37:32;;;;;;;35.77;18.73;;;4.00;69.80;;;;;;5070233;28;20070;-81
2021/11/24 07:39:57;;;;;;;26.80;15.33;;;3.90;69.70;;;;;;5068473;28;20495;-80
2021/11/24 07:42:23;;;;;;;29.50;16.47;;;3.90;70.00;;;;;;5051197;28;20062;-81
2021/11/24 07:44:49;;;;;;;28.60;15.47;;;3.90;69.80;;;;;;5056829;28;20166;-81
2021/11/24 07:47:15;;;;;;;26.93;16.23;;;3.90;69.80;;;;;;5086563;28;20042;-80
2021/11/24 07:49:40;;;;;;;31.77;15.60;;;3.80;69.60;;;;;;5053498;28;20507;-80
2021/11/24 07:52:06;;;;;;;31.87;17.17;;;3.90;69.70;;;;;;5075700;28;20016;-81
2021/11/24 07:54:32;;;;;;;34.13;18.43;;;3.90;69.50;;;;;;5087848;28;20091;-81
2021/11/24 07:56:58;;;;;;;29.77;17.53;;;3.90;69.40;;;;;;5072841;28;20040;-81
2021/11/24 07:59:24;;;;;;;32.20;16.83;;;3.90;69.40;;;;;;5055123;28;20056;-81
2021/11/24 08:01:50;;;;;;;34.27;19.53;;;3.80;69.30;;;;;;5064419;28;20105;-81
2021/11/24 08:04:17;;;;;;;29.40;17.03;;;3.80;69.30;;;;;;5066583;28;20039;-81
2021/11/24 08:06:43;;;;;;;42.77;22.50;;;3.80;69.50;;;;;;5071928;28;20028;-81
2021/11/24 08:09:10;;;;;;;38.50;19.53;;;3.80;69.30;;;;;;5072347;28;20024;-81
2021/11/24 08:11:35;;;;;;;35.77;17.60;;;3.80;69.20;;;;;;5050573;28;20029;-81
2021/11/24 08:14:02;;;;;;;35.73;18.63;;;3.80;69.30;;;;;;5070702;28;20032;-81
2021/11/24 08:16:28;;;;;;;29.23;17.03;;;3.80;69.40;;;;;;5071559;28;20020;-81
2021/11/24 08:18:55;;;;;;;29.30;16.47;;;3.80;69.60;;;;;;5063662;28;20426;-82
2021/11/24 08:21:21;;;;;;;24.23;15.20;;;3.90;69.60;;;;;;5064084;28;20108;-81
2021/11/24 08:23:47;;;;;;;25.20;15.10;;;3.90;69.60;;;;;;5053909;28;20052;-81
2021/11/24 08:26:14;;;;;;;25.17;14.73;;;3.90;69.50;;;;;;5039893;28;20079;-81
2021/11/24 08:28:39;;;;;;;26.27;14.93;;;4.00;69.40;;;;;;5052785;28;20052;-82
2021/11/24 08:31:05;;;;;;;27.60;17.97;;;4.00;69.40;;;;;;5053348;28;20056;-81
2021/11/24 08:33:31;;;;;;;27.07;16.80;;;4.10;69.40;;;;;;5071997;28;20039;-82
2021/11/24 08:35:57;;;;;;;27.40;16.20;;;4.10;69.30;;;;;;5053486;28;20511;-81
2021/11/24 08:38:22;;;;;;;28.97;15.97;;;4.20;69.30;;;;;;5066508;28;20032;-81
2021/11/24 08:40:48;;;;;;;23.77;15.60;;;4.20;69.20;;;;;;5059656;28;20116;-81
2021/11/24 08:43:14;;;;;;;22.80;14.10;;;4.20;69.00;;;;;;5065465;28;20052;-82
2021/11/24 08:45:40;;;;;;;26.80;17.30;;;4.20;69.00;;;;;;5050350;28;20480;-81
2021/11/24 08:48:06;;;;;;;24.10;14.90;;;4.20;68.90;;;;;;5054027;28;20031;-81
2021/11/24 08:50:33;;;;;;;26.70;14.30;;;4.20;68.90;;;;;;5074848;28;20020;-81
2021/11/24 08:52:59;;;;;;;22.93;14.13;;;4.20;69.00;;;;;;5061923;28;20023;-81
2021/11/24 08:55:25;;;;;;;23.77;14.13;;;4.20;69.10;;;;;;5043993;28;20024;-81
2021/11/24 08:57:51;;;;;;;26.17;14.87;;;4.20;69.10;;;;;;5071882;28;20486;-81
2021/11/24 09:00:19;;;;;;;24.07;13.97;;;4.30;69.20;;;;;;5072295;28;20062;-81
2021/11/24 09:02:50;;;;;;;24.30;14.13;;;4.40;69.50;;;;;;5063957;28;20033;-82
2021/11/24 09:05:16;;;;;;;24.77;11.77;;;4.50;69.20;;;;;;5060080;28;20498;-81
2021/11/24 09:07:41;;;;;;;26.07;14.67;;;4.50;69.00;;;;;;5056439;28;20056;-81
2021/11/24 09:10:08;;;;;;;25.20;15.33;;;4.80;69.10;;;;;;5057579;28;20028;-81
2021/11/24 09:12:33;;;;;;;18.63;11.43;;;4.90;68.80;;;;;;5047237;28;20051;-81
2021/11/24 09:14:59;;;;;;;26.53;12.70;;;5.10;68.50;;;;;;5049338;28;20467;-81
2021/11/24 09:17:25;;;;;;;28.77;14.57;;;5.30;68.10;;;;;;5071315;28;20028;-81
2021/11/24 09:19:51;;;;;;;26.40;12.50;;;5.40;67.80;;;;;;5068696;28;20063;-81
2021/11/24 09:22:17;;;;;;;17.23;11.07;;;5.60;67.70;;;;;;5075308;28;20032;-81
2021/11/24 09:24:44;;;;;;;12.10;7.97;;;5.60;67.50;;;;;;5064151;28;20103;-81
2021/11/24 09:27:18;;;;;;;17.50;9.43;;;5.70;67.30;;;;;;5062062;28;20025;-81
2021/11/24 09:29:47;;;;;;;19.67;10.50;;;5.90;67.30;;;;;;5069917;28;20074;-81
2021/11/24 09:32:13;;;;;;;18.80;10.70;;;6.10;66.80;;;;;;5053750;28;20502;-81
2021/11/24 09:34:39;;;;;;;13.70;8.43;;;6.20;66.80;;;;;;5054533;28;20036;-82
2021/11/24 09:37:05;;;;;;;15.10;9.60;;;6.20;65.80;;;;;;5054428;28;20017;-82
2021/11/24 09:39:31;;;;;;;15.77;8.63;;;6.30;66.20;;;;;;5052588;28;20028;-81
2021/11/24 09:42:03;;;;;;;16.97;8.50;;;6.40;66.20;;;;;;5057309;28;20570;-81
2021/11/24 09:44:29;;;;;;;13.73;7.70;;;6.60;65.70;;;;;;5070611;28;20055;-81
2021/11/24 09:46:57;;;;;;;12.70;8.07;;;6.70;65.50;;;;;;5061576;28;20020;-82
2021/11/24 09:49:24;;;;;;;15.27;8.93;;;6.90;65.30;;;;;;5052603;28;20028;-80
2021/11/24 09:51:52;;;;;;;14.87;7.30;;;7.10;65.10;;;;;;5090226;28;20055;-81
2021/11/24 09:54:18;;;;;;;12.90;7.77;;;7.40;64.80;;;;;;5058001;28;20025;-81
2021/11/24 09:56:45;;;;;;;17.47;8.10;;;7.50;64.00;;;;;;5053117;28;20025;-81
2021/11/24 09:59:12;;;;;;;15.37;10.70;;;7.70;63.90;;;;;;5072589;28;20086;-81
2021/11/24 10:01:38;;;;;;;16.90;9.73;;;7.90;63.80;;;;;;5074882;28;20371;-82
2021/11/24 10:04:09;;;;;;;19.13;9.40;;;8.00;63.20;;;;;;5075445;28;20016;-81
2021/11/24 10:06:39;;;;;;;15.60;7.63;;;8.10;62.60;;;;;;5057055;28;20016;-81
2021/11/24 10:09:07;;;;;;;10.80;5.70;;;8.20;62.30;;;;;;5056256;28;20151;-81
2021/11/24 10:11:33;;;;;;;9.53;5.23;;;8.40;61.50;;;;;;5048480;28;20040;-81
2021/11/24 10:13:59;;;;;;;7.83;5.13;;;8.50;61.50;;;;;;5056941;28;20025;-81
2021/11/24 10:16:31;;;;;;;11.43;5.27;;;8.80;61.20;;;;;;5055020;28;20086;-81
2021/11/24 10:19:07;;;;;;;10.13;5.60;;;9.00;60.60;;;;;;5073758;28;20017;-82
2021/11/24 10:21:33;;;;;;;7.17;4.57;;;9.20;60.00;;;;;;5055694;28;20025;-81
2021/11/24 10:24:05;;;;;;;13.13;5.40;;;9.30;59.90;;;;;;5056932;28;20454;-81
2021/11/24 10:26:36;;;;;;;11.57;5.50;;;9.40;59.50;;;;;;5055853;28;20660;-81
2021/11/24 10:29:06;;;;;;;8.70;5.17;;;9.50;59.00;;;;;;5075132;28;20067;-81
2021/11/24 10:31:42;;;;;;;7.77;5.17;;;9.60;58.60;;;;;;5056313;28;20078;-80
2021/11/24 10:34:13;;;;;;;10.33;4.93;;;9.70;58.40;;;;;;5036857;28;20468;-81
2021/11/24 10:37:13;;;;;;;11.37;5.07;;;9.80;58.00;;;;;;5062731;28;20024;-82
2021/11/24 10:39:44;;;;;;;5.57;3.60;;;9.90;57.70;;;;;;5042227;28;20037;-81
2021/11/24 10:42:17;;;;;;;9.20;3.73;;;10.10;57.70;;;;;;5036404;28;20025;-81
2021/11/24 10:44:52;;;;;;;5.83;3.97;;;10.10;57.20;;;;;;5047181;28;20446;-82
2021/11/24 10:47:19;;;;;;;6.03;4.00;;;10.00;56.70;;;;;;5063798;28;20380;-81
2021/11/24 10:49:50;;;;;;;7.97;3.40;;;10.00;57.00;;;;;;5072525;28;20021;-81
2021/11/24 10:52:19;;;;;;;5.83;3.40;;;10.10;56.70;;;;;;5052123;28;20112;-82
2021/11/24 10:55:11;;;;;;;5.40;3.13;;;10.30;56.10;;;;;;5055856;28;20017;-81
2021/11/24 10:58:00;;;;;;;8.40;4.03;;;10.40;55.20;;;;;;5052820;28;20039;-82
2021/11/24 11:00:40;;;;;;;4.90;3.30;;;10.20;55.00;;;;;;5050066;28;22052;-82
2021/11/24 11:03:08;;;;;;;5.83;3.20;;;10.10;54.80;;;;;;5071446;28;20107;-81
2021/11/24 11:05:41;;;;;;;10.50;4.07;;;10.10;55.00;;;;;;5055152;28;20024;-81
2021/11/24 11:08:09;;;;;;;6.38;4.00;;;10.10;54.60;;;;;;5052879;28;20638;-82
2021/11/24 11:10:43;;;;;;;6.63;3.63;;;10.10;54.60;;;;;;5069513;28;20111;-82
2021/11/24 11:13:17;;;;;;;6.10;4.33;;;10.20;54.70;;;;;;5080617;28;20060;-82
2021/11/24 11:15:56;;;;;;;6.83;4.00;;;10.40;54.20;;;;;;5068165;28;20021;-82
2021/11/24 11:18:26;;;;;;;5.87;3.63;;;10.50;53.70;;;;;;5066856;28;20086;-82
2021/11/24 11:28:00;;;;;;;6.67;3.70;;;10.70;53.50;;;;;;5074796;28;20051;-82
2021/11/24 11:30:29;;;;;;;12.30;4.40;;;10.70;53.10;;;;;;5068322;28;20020;-82
2021/11/24 11:32:57;;;;;;;7.30;3.77;;;10.70;53.30;;;;;;5076961;28;20028;-82
2021/11/24 11:35:27;;;;;;;8.27;4.27;;;10.70;52.90;;;;;;5075232;28;20107;-82
2021/11/24 11:37:53;;;;;;;6.07;4.20;;;10.70;52.50;;;;;;5080544;28;20739;-82
2021/11/24 11:40:19;;;;;;;6.37;3.40;;;10.70;52.70;;;;;;5053976;28;20703;-82
2021/11/24 13:03:40;;;;;;;6.20;3.87;;;11.00;50.10;;;;;;4108308;28;20482;-83
2021/11/24 13:06:05;;;;;;;6.73;3.43;;;11.00;50.40;;;;;;5072515;28;20028;-83
2021/11/24 13:08:31;;;;;;;8.33;4.00;;;10.90;50.20;;;;;;5061167;28;20033;-83
2021/11/24 13:11:02;;;;;;;7.13;4.00;;;10.90;50.20;;;;;;5062528;28;20380;-83
2021/11/24 13:13:28;;;;;;;7.47;4.10;;;10.90;50.00;;;;;;5067003;28;20074;-83
2021/11/24 13:15:54;;;;;;;11.67;5.20;;;11.00;50.20;;;;;;5044056;28;20025;-82
2021/11/24 13:18:21;;;;;;;7.53;4.70;;;11.00;50.00;;;;;;5048899;28;20028;-83
2021/11/24 13:30:56;;;;;;;7.43;3.70;;;11.00;49.80;;;;;;5073689;28;20032;-83
2021/11/24 13:33:31;;;;;;;7.40;3.87;;;10.90;49.80;;;;;;5068280;28;20036;-83
2021/11/24 13:42:40;;;;;;;11.63;4.30;;;10.80;49.70;;;;;;5071863;28;20034;-83
2021/11/24 13:45:06;;;;;;;5.10;3.47;;;10.80;49.90;;;;;;5051285;28;20016;-83
2021/11/24 13:47:32;;;;;;;8.40;4.10;;;10.80;49.90;;;;;;5054194;28;20850;-83
2021/11/24 13:49:59;;;;;;;11.33;3.87;;;10.70;49.70;;;;;;5055223;28;20039;-83
2021/11/24 13:52:30;;;;;;;9.80;4.50;;;10.70;49.80;;;;;;5050393;28;20029;-82
2021/11/24 13:54:57;;;;;;;17.17;5.40;;;10.70;49.90;;;;;;5080716;28;20040;-83
2021/11/24 13:57:31;;;;;;;11.33;5.43;;;10.60;49.90;;;;;;5066127;28;20029;-83
2021/11/24 13:59:58;;;;;;;13.10;5.33;;;10.60;50.00;;;;;;5046864;28;20028;-83
2021/11/24 14:02:27;;;;;;;8.57;4.83;;;10.50;50.10;;;;;;5054298;28;20051;-82
2021/11/24 14:05:03;;;;;;;6.77;4.20;;;10.40;50.10;;;;;;5075383;28;20020;-82
2021/11/24 14:07:38;;;;;;;7.20;3.73;;;10.40;50.50;;;;;;5057524;28;20502;-83
2021/11/24 14:10:23;;;;;;;11.37;5.63;;;10.20;50.60;;;;;;5057456;28;20025;-83
2021/11/24 14:12:50;;;;;;;18.70;9.53;;;10.10;51.10;;;;;;5055381;28;20052;-82
2021/11/24 14:15:18;;;;;;;11.80;7.07;;;10.10;51.60;;;;;;5068852;28;20096;-82
2021/11/24 14:17:55;;;;;;;13.17;6.10;;;10.00;52.00;;;;;;5037632;28;20029;-83
2021/11/24 14:20:22;;;;;;;14.73;7.57;;;10.00;52.10;;;;;;5065654;28;20031;-83
2021/11/24 14:23:18;;;;;;;9.70;5.20;;;9.80;51.90;;;;;;5073689;28;20016;-83
2021/11/24 14:25:51;;;;;;;9.33;5.33;;;9.70;52.00;;;;;;5073724;28;20495;-81
2021/11/24 14:28:31;;;;;;;7.93;4.60;;;9.60;52.20;;;;;;5056580;28;20132;-82
2021/11/24 14:30:58;;;;;;;18.20;4.73;;;9.50;52.30;;;;;;5075593;28;20028;-82